CheckWX is a tool to help pilots better visualize weather data.  It is not intended as a substitute for an official pre-flight weather briefing.

07:46:05 UTC

CYPE METAR
Peace River Airport
Peace River, Canada
Current

46 mins ago

CYPE 210700Z 10007KT 15SM SKC 10/M04 A2986 RMK SLP120 DENSITY ALT 1900FT
Observed
May-21 @ 07:00 UTC
Wind
  • 100° at 7 KTS
Visibility
15 SM
Flight Rules
VFR
Cloud Levels
  • Clear skies
Temperature
10°C / 50°F
Dewpoint
-4°C / 25°F
Humidity
37%
Altimeter
29.86" Hg
Pressure
1011.22 hPa
Previous

2 hours ago

CYPE 210600Z 13008KT 15SM SKC 12/M04 A2985 RMK FU ALF DIST NE+NW QUADS SLP119 DENSITY ALT 2100FT
Observed
May-21 @ 06:00 UTC
Wind
  • 130° at 8 KTS
Visibility
15 SM
Flight Rules
VFR
Cloud Levels
  • Clear skies
Temperature
12°C / 54°F
Dewpoint
-4°C / 25°F
Humidity
33%
Altimeter
29.85" Hg
Pressure
1010.82 hPa
Previous

3 hours ago

CYPE 210500Z 14011KT 15SM FEW250 14/M04 A2984 RMK CI1 CI TR FU ALF DIST N-E+NW SLP114 DENSITY ALT 2300FT
Observed
May-21 @ 05:00 UTC
Wind
  • 140° at 11 KTS
Visibility
15 SM
Flight Rules
VFR
Cloud Levels
  • Few at 25,000' AGL
Temperature
14°C / 57°F
Dewpoint
-4°C / 25°F
Humidity
29%
Altimeter
29.84" Hg
Pressure
1010.52 hPa